sensor_id;sensor_type;location;lat;lon;timestamp;pressure;altitude;pressure_sealevel;temperature;humidity
65054;BME280;51639;47.828;35.038;2022-09-16T00:05:19;99093.78;;;18.19;100.00
65054;BME280;51639;47.828;35.038;2022-09-16T00:20:21;99107.94;;;18.06;100.00
65054;BME280;51639;47.828;35.038;2022-09-16T00:35:23;99096.69;;;17.98;100.00
65054;BME280;51639;47.828;35.038;2022-09-16T00:50:36;99097.16;;;17.91;100.00
65054;BME280;51639;47.828;35.038;2022-09-16T01:05:39;99087.69;;;17.92;100.00
65054;BME280;51639;47.828;35.038;2022-09-16T01:21:02;99088.41;;;17.87;100.00
65054;BME280;51639;47.828;35.038;2022-09-16T01:51:36;99090.09;;;17.79;100.00
65054;BME280;51639;47.828;35.038;2022-09-16T02:06:43;99094.56;;;17.71;100.00
65054;BME280;51639;47.828;35.038;2022-09-16T02:21:49;99079.50;;;17.61;100.00
65054;BME280;51639;47.828;35.038;2022-09-16T02:36:55;99087.44;;;17.48;100.00
65054;BME280;51639;47.828;35.038;2022-09-16T02:52:18;99086.59;;;17.36;100.00
65054;BME280;51639;47.828;35.038;2022-09-16T03:07:24;99106.22;;;17.29;100.00
65054;BME280;51639;47.828;35.038;2022-09-16T03:22:50;99110.94;;;17.23;100.00
65054;BME280;51639;47.828;35.038;2022-09-16T03:37:57;99129.50;;;17.08;100.00
65054;BME280;51639;47.828;35.038;2022-09-16T03:52:59;99134.56;;;17.15;100.00
65054;BME280;51639;47.828;35.038;2022-09-16T04:08:01;99139.47;;;17.36;100.00
65054;BME280;51639;47.828;35.038;2022-09-16T04:23:03;99129.25;;;17.68;100.00
65054;BME280;51639;47.828;35.038;2022-09-16T04:38:05;99127.47;;;18.19;100.00
65054;BME280;51639;47.828;35.038;2022-09-16T04:53:07;99138.06;;;18.49;100.00
65054;BME280;51639;47.828;35.038;2022-09-16T05:08:09;99146.97;;;18.27;100.00
65054;BME280;51639;47.828;35.038;2022-09-16T05:23:11;99140.91;;;18.77;100.00
65054;BME280;51639;47.828;35.038;2022-09-16T05:38:14;99135.44;;;18.88;100.00
65054;BME280;51639;47.828;35.038;2022-09-16T05:53:16;99139.09;;;20.02;100.00
65054;BME280;51639;47.828;35.038;2022-09-16T06:08:18;99118.75;;;21.39;100.00
65054;BME280;51639;47.828;35.038;2022-09-16T06:23:20;99122.44;;;23.09;100.00
65054;BME280;51639;47.828;35.038;2022-09-16T06:38:23;99107.41;;;24.63;100.00
65054;BME280;51639;47.828;35.038;2022-09-16T06:53:25;99112.47;;;25.06;100.00
65054;BME280;51639;47.828;35.038;2022-09-16T07:08:31;99088.28;;;25.99;100.00
65054;BME280;51639;47.828;35.038;2022-09-16T07:23:35;99083.22;;;25.05;100.00
65054;BME280;51639;47.828;35.038;2022-09-16T07:38:38;99076.88;;;24.83;100.00
65054;BME280;51639;47.828;35.038;2022-09-16T07:53:41;99059.63;;;25.19;100.00
65054;BME280;51639;47.828;35.038;2022-09-16T08:08:44;99038.22;;;25.27;100.00
65054;BME280;51639;47.828;35.038;2022-09-16T08:23:47;99027.00;;;25.69;100.00
65054;BME280;51639;47.828;35.038;2022-09-16T08:38:51;99001.13;;;26.48;100.00
65054;BME280;51639;47.828;35.038;2022-09-16T08:54:04;99014.91;;;26.92;94.47
65054;BME280;51639;47.828;35.038;2022-09-16T09:54:39;98973.03;;;25.28;100.00
65054;BME280;51639;47.828;35.038;2022-09-16T10:10:00;98972.34;;;25.35;100.00
65054;BME280;51639;47.828;35.038;2022-09-16T10:25:06;98965.16;;;27.03;100.00
65054;BME280;51639;47.828;35.038;2022-09-16T10:40:22;98947.03;;;27.42;100.00
65054;BME280;51639;47.828;35.038;2022-09-16T10:55:31;98945.31;;;26.61;100.00
65054;BME280;51639;47.828;35.038;2022-09-16T11:10:44;98944.59;;;25.79;94.23
65054;BME280;51639;47.828;35.038;2022-09-16T11:26:07;98933.06;;;25.75;100.00
65054;BME280;51639;47.828;35.038;2022-09-16T12:12:16;98897.69;;;27.20;86.80
65054;BME280;51639;47.828;35.038;2022-09-16T12:27:46;98889.78;;;26.25;93.00
65054;BME280;51639;47.828;35.038;2022-09-16T12:43:18;98882.56;;;25.92;100.00
65054;BME280;51639;47.828;35.038;2022-09-16T12:58:47;98877.91;;;25.94;93.66
65054;BME280;51639;47.828;35.038;2022-09-16T13:13:54;98874.72;;;25.67;100.00
65054;BME280;51639;47.828;35.038;2022-09-16T13:28:57;98888.50;;;25.01;100.00
65054;BME280;51639;47.828;35.038;2022-09-16T13:44:00;98905.53;;;24.14;100.00
65054;BME280;51639;47.828;35.038;2022-09-16T14:14:24;98935.00;;;23.83;100.00
65054;BME280;51639;47.828;35.038;2022-09-16T14:29:59;98959.75;;;23.41;100.00
65054;BME280;51639;47.828;35.038;2022-09-16T14:45:02;99033.59;;;22.94;100.00
65054;BME280;51639;47.828;35.038;2022-09-16T15:00:05;99025.28;;;22.81;100.00
65054;BME280;51639;47.828;35.038;2022-09-16T15:15:26;99043.69;;;22.59;100.00
65054;BME280;51639;47.828;35.038;2022-09-16T15:30:31;99044.63;;;22.30;100.00
65054;BME280;51639;47.828;35.038;2022-09-16T15:45:33;99050.44;;;21.89;100.00
65054;BME280;51639;47.828;35.038;2022-09-16T16:01:02;99077.78;;;21.43;100.00
65054;BME280;51639;47.828;35.038;2022-09-16T16:16:05;99102.59;;;21.19;100.00
65054;BME280;51639;47.828;35.038;2022-09-16T16:31:10;99129.41;;;20.89;100.00
65054;BME280;51639;47.828;35.038;2022-09-16T16:46:13;99153.16;;;20.56;100.00
65054;BME280;51639;47.828;35.038;2022-09-16T17:01:16;99161.81;;;20.19;100.00
65054;BME280;51639;47.828;35.038;2022-09-16T17:16:19;99193.72;;;19.87;100.00
65054;BME280;51639;47.828;35.038;2022-09-16T17:31:27;99189.50;;;19.58;100.00
65054;BME280;51639;47.828;35.038;2022-09-16T17:46:30;99214.25;;;19.30;100.00
65054;BME280;51639;47.828;35.038;2022-09-16T18:01:32;99202.47;;;19.13;100.00
65054;BME280;51639;47.828;35.038;2022-09-16T18:16:35;99214.44;;;18.87;100.00
65054;BME280;51639;47.828;35.038;2022-09-16T18:31:42;99226.34;;;18.67;100.00
65054;BME280;51639;47.828;35.038;2022-09-16T18:46:46;99243.72;;;18.48;100.00
65054;BME280;51639;47.828;35.038;2022-09-16T19:01:49;99249.88;;;18.26;100.00
65054;BME280;51639;47.828;35.038;2022-09-16T19:16:52;99253.19;;;17.98;100.00
65054;BME280;51639;47.828;35.038;2022-09-16T19:31:54;99274.72;;;17.74;100.00
65054;BME280;51639;47.828;35.038;2022-09-16T19:46:56;99311.19;;;17.54;100.00
65054;BME280;51639;47.828;35.038;2022-09-16T20:01:58;99342.53;;;17.42;100.00
65054;BME280;51639;47.828;35.038;2022-09-16T20:17:00;99349.59;;;17.28;100.00
65054;BME280;51639;47.828;35.038;2022-09-16T20:32:03;99355.91;;;17.14;100.00
65054;BME280;51639;47.828;35.038;2022-09-16T20:47:05;99352.03;;;17.00;100.00
65054;BME280;51639;47.828;35.038;2022-09-16T21:02:07;99336.19;;;16.90;100.00
65054;BME280;51639;47.828;35.038;2022-09-16T21:17:09;99345.47;;;16.78;100.00
65054;BME280;51639;47.828;35.038;2022-09-16T21:32:12;99366.31;;;16.69;100.00
65054;BME280;51639;47.828;35.038;2022-09-16T21:47:14;99384.00;;;16.68;100.00
65054;BME280;51639;47.828;35.038;2022-09-16T22:02:15;99394.28;;;16.74;100.00
65054;BME280;51639;47.828;35.038;2022-09-16T22:17:17;99378.50;;;16.68;100.00
65054;BME280;51639;47.828;35.038;2022-09-16T22:32:19;99386.00;;;16.53;100.00
65054;BME280;51639;47.828;35.038;2022-09-16T22:47:21;99396.78;;;16.42;100.00
65054;BME280;51639;47.828;35.038;2022-09-16T23:02:23;99399.06;;;16.29;100.00
65054;BME280;51639;47.828;35.038;2022-09-16T23:17:24;99404.72;;;16.11;100.00
65054;BME280;51639;47.828;35.038;2022-09-16T23:32:27;99407.00;;;15.97;100.00
65054;BME280;51639;47.828;35.038;2022-09-16T23:47:29;99401.31;;;15.86;100.00
